Time;durP1;ratioP1;P1;durP2;ratioP2;P2;SDS_P1;SDS_P2;PMS_P1;PMS_P2;Temp;Humidity;BMP_temperature;BMP_pressure;BME280_temperature;BME280_humidity;BME280_pressure;Samples;Min_cycle;Max_cycle;Signal;HPM_P1;HPM_P2
2022/09/20 00:01:15;;;;;;;2.23;2.10;;;9.10;60.50;;;;;;5108748;28;20384;-71
2022/09/20 00:03:44;;;;;;;2.30;2.00;;;9.10;64.70;;;;;;5095151;28;20376;-75
2022/09/20 00:06:13;;;;;;;2.17;2.07;;;9.00;68.20;;;;;;5095892;28;20541;-70
2022/09/20 00:08:39;;;;;;;2.23;2.00;;;9.00;63.50;;;;;;5095558;28;20431;-73
2022/09/20 00:11:20;;;;;;;2.50;2.13;;;9.00;60.70;;;;;;5099043;28;20388;-70
2022/09/20 00:13:48;;;;;;;2.60;2.27;;;9.00;89.30;;;;;;5115242;28;20434;-70
2022/09/20 00:16:20;;;;;;;2.10;2.00;;;9.00;71.10;;;;;;5079603;28;20409;-69
2022/09/20 00:18:53;;;;;;;2.40;2.20;;;9.00;50.70;;;;;;5103477;28;20480;-73
2022/09/20 00:21:25;;;;;;;2.93;2.40;;;8.90;45.30;;;;;;5115866;28;20499;-69
2022/09/20 00:23:52;;;;;;;3.10;2.30;;;8.90;56.40;;;;;;5094774;28;20401;-70
2022/09/20 00:26:18;;;;;;;2.60;2.40;;;9.00;51.10;;;;;;5096488;28;20444;-74
2022/09/20 00:28:45;;;;;;;2.20;2.00;;;9.00;62.90;;;;;;5095160;28;20397;-73
2022/09/20 00:31:12;;;;;;;3.23;2.50;;;9.00;65.10;;;;;;5095127;28;20389;-73
2022/09/20 00:36:22;;;;;;;2.23;2.00;;;9.00;70.00;;;;;;5095535;28;20424;-70
2022/09/20 00:38:48;;;;;;;2.30;2.20;;;9.00;69.50;;;;;;5093828;28;20387;-73
2022/09/20 00:41:14;;;;;;;2.37;2.17;;;9.00;70.00;;;;;;5097283;28;20175;-72
2022/09/20 00:43:43;;;;;;;2.10;1.83;;;9.00;72.70;;;;;;5099789;28;20181;-70
2022/09/20 00:46:35;;;;;;;2.37;2.17;;;9.00;72.60;;;;;;5099156;28;20511;-74
2022/09/20 00:49:16;;;;;;;1.90;1.80;;;9.10;83.70;;;;;;5115019;28;20880;-74
2022/09/20 00:51:46;;;;;;;2.00;1.90;;;9.10;92.10;;;;;;5094875;28;20390;-70
2022/09/20 00:54:14;;;;;;;2.00;1.90;;;9.10;91.90;;;;;;5104517;28;20411;-74
2022/09/20 00:56:42;;;;;;;2.00;1.90;;;9.10;90.70;;;;;;5114165;28;20477;-74
2022/09/20 00:59:30;;;;;;;2.10;1.97;;;9.10;92.20;;;;;;5094819;28;20434;-74
2022/09/20 01:02:08;;;;;;;3.40;1.90;;;9.20;92.10;;;;;;5108720;28;20417;-73
2022/09/20 01:04:37;;;;;;;2.13;1.97;;;9.20;92.10;;;;;;5108168;28;20403;-74
2022/09/20 01:07:05;;;;;;;2.27;2.13;;;9.10;92.20;;;;;;5093650;28;20394;-71
2022/09/20 01:09:31;;;;;;;2.50;2.30;;;9.20;92.10;;;;;;5094747;28;20385;-70
2022/09/20 01:12:01;;;;;;;2.30;2.10;;;9.20;92.10;;;;;;5094417;28;20482;-73
2022/09/20 01:14:26;;;;;;;2.70;1.70;;;9.20;92.10;;;;;;5093166;28;20182;-74
2022/09/20 01:16:56;;;;;;;2.73;2.20;;;9.10;93.20;;;;;;5098804;28;20480;-70
2022/09/20 01:19:40;;;;;;;1.83;1.73;;;9.10;92.10;;;;;;5099974;28;20258;-73
2022/09/20 01:22:20;;;;;;;2.17;1.97;;;9.10;92.20;;;;;;5114350;28;20380;-71
2022/09/20 01:25:05;;;;;;;1.87;1.77;;;9.00;92.10;;;;;;5092396;28;20421;-74
2022/09/20 01:27:49;;;;;;;1.90;1.77;;;9.00;92.10;;;;;;5106735;28;20513;-70
2022/09/20 01:30:19;;;;;;;2.50;1.73;;;9.00;93.10;;;;;;5109350;28;20425;-69
2022/09/20 01:32:51;;;;;;;2.73;1.70;;;9.00;92.00;;;;;;5094038;28;20429;-69
2022/09/20 01:35:20;;;;;;;2.63;2.43;;;8.90;91.70;;;;;;5109249;28;20507;-70
2022/09/20 01:38:01;;;;;;;2.80;2.30;;;8.90;92.00;;;;;;5107847;28;20414;-69
2022/09/20 01:40:51;;;;;;;6.10;2.63;;;8.90;92.00;;;;;;5093952;28;20382;-73
2022/09/20 01:43:32;;;;;;;2.80;2.17;;;8.90;92.00;;;;;;5092985;28;20753;-72
2022/09/20 01:46:03;;;;;;;2.00;1.83;;;8.90;91.60;;;;;;5106638;28;20440;-69
2022/09/20 01:48:36;;;;;;;2.20;2.10;;;8.90;92.50;;;;;;5110131;28;20397;-74
2022/09/20 01:51:28;;;;;;;6.30;2.67;;;8.90;92.00;;;;;;5093926;28;20390;-74
2022/09/20 01:54:23;;;;;;;1.77;1.67;;;8.90;92.20;;;;;;5099446;28;20522;-73
2022/09/20 01:57:07;;;;;;;1.87;1.77;;;8.90;99.90;;;;;;5113037;28;20460;-73
2022/09/20 01:59:51;;;;;;;2.63;2.43;;;8.80;96.40;;;;;;5076619;28;20982;-73
2022/09/20 02:02:55;;;;;;;2.10;2.00;;;8.80;98.50;;;;;;5108725;28;20419;-73
2022/09/20 02:05:30;;;;;;;2.50;2.30;;;8.80;98.20;;;;;;5099491;28;20471;-73
2022/09/20 02:08:13;;;;;;;3.33;2.10;;;8.70;93.90;;;;;;5078464;28;20472;-73
2022/09/20 02:11:06;;;;;;;2.00;1.80;;;8.70;96.20;;;;;;5113895;28;20431;-70
2022/09/20 02:13:51;;;;;;;2.23;2.13;;;8.70;92.00;;;;;;5093634;28;20454;-69
2022/09/20 02:16:33;;;;;;;2.30;2.10;;;8.60;92.40;;;;;;5093361;28;20397;-74
2022/09/20 02:19:20;;;;;;;3.63;2.43;;;8.70;91.90;;;;;;5093357;28;20378;-72
2022/09/20 02:21:51;;;;;;;2.43;2.23;;;8.70;93.10;;;;;;5107500;28;20425;-73
2022/09/20 02:24:41;;;;;;;2.43;2.10;;;8.60;92.50;;;;;;5112815;28;20498;-74
2022/09/20 02:27:27;;;;;;;2.70;1.97;;;8.60;93.50;;;;;;5077878;28;20386;-74
2022/09/20 02:30:21;;;;;;;2.23;2.03;;;8.60;97.00;;;;;;5103065;28;20403;-71
2022/09/20 02:33:10;;;;;;;2.43;2.33;;;8.50;97.90;;;;;;5109087;28;20807;-73
2022/09/20 02:36:14;;;;;;;2.80;2.37;;;8.40;92.90;;;;;;5092614;28;20427;-74
2022/09/20 02:38:51;;;;;;;2.33;2.13;;;8.40;92.00;;;;;;5075074;28;20909;-73
2022/09/20 02:41:30;;;;;;;2.37;2.27;;;8.40;92.50;;;;;;5106054;28;20414;-72
2022/09/20 02:44:23;;;;;;;2.13;2.00;;;8.30;91.80;;;;;;5092817;28;20405;-72
2022/09/20 02:47:12;;;;;;;2.07;1.97;;;8.20;92.40;;;;;;5105110;28;20452;-73
2022/09/20 02:49:46;;;;;;;2.23;2.10;;;8.30;91.80;;;;;;5113348;28;20411;-70
2022/09/20 02:52:43;;;;;;;2.10;2.00;;;8.20;91.80;;;;;;5112471;28;20423;-69
2022/09/20 02:55:16;;;;;;;6.50;2.00;;;8.20;91.80;;;;;;5107942;28;20455;-73
2022/09/20 02:57:48;;;;;;;3.63;2.20;;;8.20;91.80;;;;;;5092511;28;20895;-69
2022/09/20 03:00:17;;;;;;;2.33;1.73;;;8.10;91.70;;;;;;5096775;28;20756;-69
2022/09/20 03:03:17;;;;;;;2.30;2.10;;;8.10;85.30;;;;;;5113330;28;20591;-73
2022/09/20 03:06:30;;;;;;;2.23;2.13;;;8.10;91.40;;;;;;5086050;28;20437;-69
2022/09/20 03:09:20;;;;;;;2.20;2.00;;;8.00;90.90;;;;;;5011221;28;20455;-69
2022/09/20 03:12:21;;;;;;;2.27;2.00;;;8.00;91.30;;;;;;5092851;28;20400;-73
2022/09/20 03:15:12;;;;;;;2.63;2.50;;;7.90;91.00;;;;;;5091729;28;20404;-69
2022/09/20 03:17:56;;;;;;;2.10;2.00;;;8.00;91.80;;;;;;5095298;28;20402;-72
2022/09/20 03:20:52;;;;;;;3.50;2.60;;;7.90;90.00;;;;;;5113079;28;20406;-69
2022/09/20 03:23:39;;;;;;;3.43;2.47;;;7.90;70.00;;;;;;5103948;28;20502;-73
2022/09/20 03:26:35;;;;;;;1.97;1.87;;;7.90;89.60;;;;;;5093791;28;20436;-69
2022/09/20 03:29:33;;;;;;;2.40;2.20;;;7.90;90.10;;;;;;5113195;28;20379;-73
2022/09/20 03:32:24;;;;;;;2.57;2.37;;;7.90;91.00;;;;;;5111222;28;20458;-68
2022/09/20 03:35:14;;;;;;;2.50;2.30;;;7.90;91.60;;;;;;5100449;28;20761;-73
2022/09/20 03:37:40;;;;;;;6.37;4.87;;;7.90;91.30;;;;;;5092392;28;20397;-74
2022/09/20 03:40:39;;;;;;;6.40;4.80;;;7.90;91.70;;;;;;5107312;28;20405;-73
2022/09/20 03:43:25;;;;;;;3.50;3.20;;;8.00;91.70;;;;;;5113118;28;20181;-73
2022/09/20 03:46:02;;;;;;;2.77;2.67;;;8.00;91.70;;;;;;5094829;28;20425;-74
2022/09/20 03:48:55;;;;;;;4.47;2.60;;;7.90;91.30;;;;;;5108015;28;20419;-73
2022/09/20 03:51:34;;;;;;;2.00;1.90;;;7.90;85.40;;;;;;5110957;28;20428;-74
2022/09/20 03:54:23;;;;;;;5.47;2.80;;;7.90;82.90;;;;;;5094605;28;20433;-69
2022/09/20 03:56:54;;;;;;;4.27;3.40;;;7.90;91.70;;;;;;5095872;28;20411;-74
2022/09/20 03:59:39;;;;;;;3.23;2.90;;;7.80;91.60;;;;;;5096187;28;20415;-69
2022/09/20 04:02:45;;;;;;;2.73;2.47;;;7.80;91.60;;;;;;5108231;28;20443;-68
2022/09/20 04:05:54;;;;;;;3.37;2.33;;;7.80;88.90;;;;;;5069587;28;20466;-70
2022/09/20 04:08:47;;;;;;;4.80;2.30;;;7.80;87.90;;;;;;5095876;28;20415;-69
2022/09/20 04:11:50;;;;;;;3.37;3.10;;;7.80;91.70;;;;;;5111088;28;20454;-70
2022/09/20 04:14:28;;;;;;;6.73;4.53;;;7.80;84.80;;;;;;5114782;28;20460;-73
2022/09/20 04:17:14;;;;;;;3.47;3.17;;;7.70;82.60;;;;;;5095183;28;20409;-69
2022/09/20 04:19:50;;;;;;;3.33;3.03;;;7.70;89.00;;;;;;5096324;28;20843;-73
2022/09/20 04:22:20;;;;;;;2.60;2.40;;;7.70;89.00;;;;;;5095604;28;20891;-69
2022/09/20 04:24:58;;;;;;;2.27;2.17;;;7.70;80.30;;;;;;5095358;28;20904;-74
2022/09/20 04:27:26;;;;;;;2.97;2.77;;;7.60;79.80;;;;;;5115840;28;20849;-74
2022/09/20 04:30:00;;;;;;;2.67;2.47;;;7.60;84.30;;;;;;5102559;28;20404;-72
2022/09/20 04:32:47;;;;;;;2.67;2.47;;;7.60;71.60;;;;;;5098175;28;20787;-73
2022/09/20 04:38:18;;;;;;;4.13;2.90;;;7.50;73.70;;;;;;5095342;28;20437;-73
2022/09/20 04:40:53;;;;;;;3.10;2.80;;;7.50;65.60;;;;;;5106316;28;20509;-69
2022/09/20 04:43:31;;;;;;;2.60;2.40;;;7.50;65.40;;;;;;5113027;28;20395;-73
2022/09/20 04:46:09;;;;;;;2.73;2.53;;;7.50;69.20;;;;;;5093336;28;20473;-69
2022/09/20 04:48:45;;;;;;;2.67;2.47;;;7.50;67.10;;;;;;5109850;28;20519;-72
2022/09/20 04:51:50;;;;;;;2.40;1.90;;;7.50;66.10;;;;;;5108075;28;20503;-73
2022/09/20 04:54:43;;;;;;;3.13;2.93;;;7.40;64.70;;;;;;5094949;28;20763;-72
2022/09/20 04:57:27;;;;;;;2.33;2.20;;;7.30;77.70;;;;;;5114568;28;20415;-69
2022/09/20 05:00:19;;;;;;;2.40;2.30;;;7.30;47.80;;;;;;5095126;28;20453;-69
2022/09/20 05:03:10;;;;;;;2.70;2.10;;;7.20;47.90;;;;;;5095842;28;20404;-69
2022/09/20 05:06:05;;;;;;;6.60;2.50;;;7.20;46.70;;;;;;5114118;28;20415;-68
2022/09/20 05:08:51;;;;;;;2.53;2.33;;;7.20;53.10;;;;;;5088696;28;20429;-72
2022/09/20 05:11:50;;;;;;;5.40;3.00;;;7.20;51.30;;;;;;5094313;28;20465;-73
2022/09/20 05:14:28;;;;;;;4.13;2.57;;;7.10;39.20;;;;;;5093568;28;20426;-73
2022/09/20 05:17:16;;;;;;;2.63;2.50;;;7.00;40.50;;;;;;5109983;28;20422;-71
2022/09/20 05:20:27;;;;;;;2.20;2.00;;;7.00;44.70;;;;;;5106545;28;20422;-69
2022/09/20 05:23:09;;;;;;;3.30;3.00;;;6.90;46.40;;;;;;5056869;28;20407;-68
2022/09/20 05:26:08;;;;;;;21.33;2.60;;;6.90;32.00;;;;;;5113240;28;20463;-69
2022/09/20 05:29:01;;;;;;;2.60;2.40;;;6.90;44.60;;;;;;5094163;28;20419;-71
2022/09/20 05:31:39;;;;;;;3.20;2.40;;;6.80;32.40;;;;;;5096320;28;20847;-69
2022/09/20 05:34:25;;;;;;;2.23;2.03;;;6.80;33.40;;;;;;5113527;28;20446;-69
2022/09/20 05:37:00;;;;;;;2.30;2.20;;;6.80;40.30;;;;;;5097353;28;20492;-68
2022/09/20 05:40:04;;;;;;;2.40;2.20;;;6.90;27.60;;;;;;5094022;28;20894;-75
2022/09/20 05:42:45;;;;;;;2.70;2.33;;;6.90;40.20;;;;;;5082373;28;20424;-72
2022/09/20 05:45:42;;;;;;;2.40;2.20;;;6.80;40.40;;;;;;5105810;28;20442;-69
2022/09/20 05:48:23;;;;;;;2.03;1.93;;;6.70;32.40;;;;;;5114318;28;20414;-74
2022/09/20 05:50:59;;;;;;;3.60;2.00;;;6.70;40.50;;;;;;5096098;28;20428;-68
2022/09/20 05:53:44;;;;;;;2.40;1.90;;;6.70;33.50;;;;;;5101895;28;20493;-68
2022/09/20 05:56:21;;;;;;;2.63;2.40;;;6.70;47.60;;;;;;5112832;28;20434;-68
2022/09/20 05:58:50;;;;;;;3.87;3.10;;;6.80;47.30;;;;;;5093755;28;20399;-68
2022/09/20 06:01:38;;;;;;;6.43;2.30;;;6.80;44.30;;;;;;5105329;28;20388;-71
2022/09/20 06:04:23;;;;;;;2.97;2.33;;;6.90;43.30;;;;;;5107820;28;20482;-68
2022/09/20 06:07:19;;;;;;;2.13;2.03;;;6.90;37.70;;;;;;5093600;28;20906;-68
2022/09/20 06:10:34;;;;;;;2.07;1.80;;;7.00;33.40;;;;;;5102878;28;20425;-73
2022/09/20 06:13:38;;;;;;;2.63;2.23;;;7.00;48.20;;;;;;5113836;28;20546;-68
2022/09/20 06:16:06;;;;;;;2.50;1.70;;;7.10;58.60;;;;;;5093322;28;20436;-68
2022/09/20 06:18:47;;;;;;;2.40;2.20;;;7.20;48.50;;;;;;5075380;28;20427;-73
2022/09/20 06:21:34;;;;;;;2.60;2.40;;;7.30;48.10;;;;;;5092586;28;20495;-72
2022/09/20 06:24:02;;;;;;;3.80;2.77;;;7.30;59.80;;;;;;5093817;28;20389;-68
2022/09/20 06:26:34;;;;;;;5.87;2.70;;;7.40;55.50;;;;;;5113675;28;20427;-73
2022/09/20 06:29:05;;;;;;;3.00;2.13;;;7.50;63.60;;;;;;5112367;28;20384;-68
2022/09/20 06:31:30;;;;;;;2.40;2.20;;;7.60;72.40;;;;;;5093305;28;20408;-68
2022/09/20 06:34:09;;;;;;;10.93;2.80;;;7.70;72.50;;;;;;5092177;28;20524;-70
2022/09/20 06:42:25;;;;;;;2.57;1.97;;;8.00;91.70;;;;;;5113545;28;20454;-73
2022/09/20 06:44:50;;;;;;;3.10;2.67;;;8.10;94.00;;;;;;5112417;28;20503;-73
2022/09/20 06:47:17;;;;;;;4.23;2.10;;;8.30;98.50;;;;;;5113494;28;20453;-71
2022/09/20 06:49:45;;;;;;;3.63;1.83;;;8.40;99.90;;;;;;5113497;28;20631;-70
2022/09/20 06:52:19;;;;;;;2.97;2.20;;;8.50;99.90;;;;;;5113277;28;20988;-74
2022/09/20 06:54:52;;;;;;;4.57;2.50;;;8.60;99.90;;;;;;5112647;28;20420;-74
2022/09/20 06:57:35;;;;;;;9.60;2.17;;;8.80;99.90;;;;;;5112439;28;20414;-69
2022/09/20 07:00:01;;;;;;;2.73;2.30;;;8.90;99.90;;;;;;5113198;28;20398;-70
2022/09/20 07:02:27;;;;;;;4.43;2.80;;;9.00;99.90;;;;;;5113357;28;20418;-70
2022/09/20 07:04:54;;;;;;;6.17;2.63;;;9.20;99.90;;;;;;5112574;28;20476;-70
2022/09/20 07:07:20;;;;;;;6.13;2.43;;;9.30;99.90;;;;;;5113274;28;20183;-73
2022/09/20 07:09:46;;;;;;;5.07;2.50;;;9.40;99.90;;;;;;5113303;28;20406;-73
2022/09/20 07:12:12;;;;;;;3.20;2.50;;;9.50;99.90;;;;;;5112577;28;20953;-68
2022/09/20 07:14:38;;;;;;;2.80;2.60;;;9.60;99.90;;;;;;5111884;28;20379;-68
2022/09/20 07:17:04;;;;;;;11.47;2.63;;;9.70;99.90;;;;;;5108324;28;20378;-74
2022/09/20 07:19:29;;;;;;;5.13;1.90;;;9.80;99.90;;;;;;5093784;28;20453;-68
2022/09/20 07:21:55;;;;;;;5.70;2.90;;;9.90;99.90;;;;;;5097770;28;20443;-74
2022/09/20 07:24:21;;;;;;;6.17;3.03;;;10.00;99.90;;;;;;5095790;28;20482;-73
2022/09/20 07:26:55;;;;;;;5.77;3.40;;;10.10;99.90;;;;;;5096633;28;20190;-73
2022/09/20 07:29:21;;;;;;;12.20;3.47;;;10.20;99.90;;;;;;5116981;28;20175;-68
2022/09/20 07:31:49;;;;;;;6.33;2.50;;;10.30;99.90;;;;;;5116702;28;20388;-75
2022/09/20 07:34:19;;;;;;;8.03;2.83;;;10.50;99.90;;;;;;5095254;28;20711;-71
2022/09/20 07:36:46;;;;;;;6.70;3.43;;;10.60;99.90;;;;;;5095656;28;20428;-72
2022/09/20 07:39:12;;;;;;;6.57;2.83;;;10.70;99.90;;;;;;5115682;28;20484;-73
2022/09/20 07:41:37;;;;;;;8.03;2.60;;;10.80;99.90;;;;;;5116829;28;20448;-73
2022/09/20 07:46:53;;;;;;;3.60;3.03;;;11.00;99.90;;;;;;5096235;28;20168;-74
2022/09/20 07:49:20;;;;;;;6.10;2.03;;;11.10;99.90;;;;;;5114444;28;20788;-73
2022/09/20 07:51:46;;;;;;;6.80;1.60;;;11.20;99.90;;;;;;5116799;28;20373;-70
2022/09/20 07:54:12;;;;;;;9.97;2.27;;;11.30;99.90;;;;;;5097321;28;20406;-70
2022/09/20 07:56:37;;;;;;;8.57;2.47;;;11.30;99.90;;;;;;5077591;28;20418;-69
2022/09/20 07:59:03;;;;;;;4.60;2.23;;;11.50;99.90;;;;;;5111388;28;20165;-70
2022/09/20 08:01:29;;;;;;;4.57;1.80;;;11.50;99.90;;;;;;5103174;28;20204;-73
2022/09/20 08:03:55;;;;;;;5.73;2.03;;;11.60;99.90;;;;;;5094998;28;20660;-72
2022/09/20 08:06:21;;;;;;;7.20;2.30;;;11.70;99.90;;;;;;5106944;28;20188;-70
2022/09/20 08:08:48;;;;;;;5.13;1.60;;;11.80;99.90;;;;;;5116110;28;20407;-69
2022/09/20 08:11:16;;;;;;;6.80;2.40;;;11.90;99.90;;;;;;5116237;28;20403;-73
2022/09/20 08:13:45;;;;;;;8.40;2.20;;;12.00;99.90;;;;;;5114749;28;20999;-70
2022/09/20 08:16:20;;;;;;;2.97;1.83;;;12.20;99.90;;;;;;5115959;28;20450;-73
2022/09/20 08:18:57;;;;;;;4.10;1.90;;;12.30;99.90;;;;;;5115833;28;20422;-69
2022/09/20 08:21:30;;;;;;;6.43;2.37;;;12.40;99.90;;;;;;5115812;28;20369;-74
2022/09/20 08:23:57;;;;;;;5.90;2.27;;;12.50;95.40;;;;;;5115240;28;20403;-73
2022/09/20 08:26:24;;;;;;;6.00;2.30;;;12.60;99.90;;;;;;5115864;28;20467;-72
2022/09/20 08:28:52;;;;;;;5.17;2.00;;;12.60;92.60;;;;;;5115684;28;20418;-73
2022/09/20 08:31:20;;;;;;;2.87;2.03;;;12.70;70.20;;;;;;5096543;28;20910;-70
2022/09/20 08:33:47;;;;;;;5.00;2.23;;;12.90;68.40;;;;;;5114405;28;20454;-73
2022/09/20 08:36:16;;;;;;;12.50;2.53;;;13.00;61.20;;;;;;5115195;28;20418;-73
2022/09/20 08:38:42;;;;;;;3.73;1.80;;;13.10;53.50;;;;;;5115535;28;20803;-73
2022/09/20 08:41:16;;;;;;;7.17;2.33;;;13.30;57.30;;;;;;5115643;28;20895;-69
2022/09/20 08:43:55;;;;;;;5.03;2.53;;;13.40;33.80;;;;;;5115139;28;20755;-70
2022/09/20 08:46:28;;;;;;;9.00;1.97;;;13.60;23.60;;;;;;5097254;28;20791;-73
2022/09/20 08:48:58;;;;;;;7.27;1.77;;;13.70;10.90;;;;;;5115229;28;20506;-70
2022/09/20 08:51:29;;;;;;;8.43;2.30;;;14.00;8.80;;;;;;5110957;28;20418;-73
2022/09/20 08:53:57;;;;;;;6.67;1.97;;;14.10;1.00;;;;;;5092677;28;20845;-74
2022/09/20 08:56:35;;;;;;;2.57;1.57;;;14.30;1.00;;;;;;5097357;28;20500;-70
2022/09/20 08:59:02;;;;;;;10.23;1.83;;;14.40;1.00;;;;;;5115067;28;20485;-70
2022/09/20 09:01:32;;;;;;;3.30;1.60;;;14.60;1.00;;;;;;5111985;28;20419;-73
2022/09/20 09:04:20;;;;;;;3.37;1.63;;;14.70;1.00;;;;;;5093848;28;21110;-74
2022/09/20 09:06:51;;;;;;;8.37;1.80;;;14.80;1.00;;;;;;5099156;28;20439;-73
2022/09/20 09:09:26;;;;;;;4.00;1.90;;;15.00;1.00;;;;;;5104327;28;20436;-74
2022/09/20 09:11:54;;;;;;;2.40;1.37;;;15.10;1.00;;;;;;5093751;28;20519;-73
2022/09/20 09:17:19;;;;;;;2.20;1.53;;;15.60;1.00;;;;;;5100187;28;20417;-71
2022/09/20 09:19:47;;;;;;;5.33;1.80;;;15.80;1.00;;;;;;5114812;28;20467;-70
2022/09/20 09:22:39;;;;;;;4.40;2.50;;;16.00;1.00;;;;;;5108384;28;20430;-72
2022/09/20 09:25:08;;;;;;;6.30;1.40;;;16.20;1.00;;;;;;5093259;28;20429;-73
2022/09/20 09:27:37;;;;;;;4.30;1.47;;;16.50;1.00;;;;;;5076364;28;20416;-70
2022/09/20 09:30:19;;;;;;;6.77;1.63;;;16.60;1.00;;;;;;5093815;28;20416;-73
2022/09/20 09:32:45;;;;;;;2.60;1.30;;;16.90;1.00;;;;;;5102009;28;20454;-70
2022/09/20 09:35:30;;;;;;;3.50;1.37;;;17.00;1.00;;;;;;5098075;28;20457;-74
2022/09/20 09:38:01;;;;;;;7.63;1.50;;;17.20;1.00;;;;;;5097535;28;20177;-73
2022/09/20 09:40:30;;;;;;;2.53;0.90;;;17.50;1.00;;;;;;5107657;28;20426;-70
2022/09/20 09:42:59;;;;;;;3.10;1.17;;;17.60;1.00;;;;;;5100988;28;20436;-74
2022/09/20 09:45:40;;;;;;;4.70;1.33;;;17.80;1.00;;;;;;5110539;28;20443;-73
2022/09/20 09:48:25;;;;;;;3.17;1.40;;;18.10;1.00;;;;;;5103064;28;20419;-71
2022/09/20 09:51:08;;;;;;;2.73;1.30;;;18.40;1.00;;;;;;5090452;28;20450;-73
2022/09/20 09:53:35;;;;;;;3.10;1.40;;;18.60;1.00;;;;;;5094216;28;20459;-74
2022/09/20 09:56:31;;;;;;;2.47;1.20;;;18.70;1.00;;;;;;5090989;28;20845;-71
2022/09/20 09:59:34;;;;;;;1.57;1.47;;;19.00;1.00;;;;;;5112873;28;20414;-74
2022/09/20 10:02:00;;;;;;;2.93;1.23;;;19.10;1.00;;;;;;5093792;28;20422;-71
2022/09/20 10:04:38;;;;;;;3.50;1.47;;;19.10;1.00;;;;;;5096695;28;20403;-73
2022/09/20 10:07:13;;;;;;;3.37;0.90;;;19.40;1.00;;;;;;5096125;28;20437;-73
2022/09/20 10:09:44;;;;;;;3.47;1.20;;;19.60;1.00;;;;;;5107629;28;20484;-71
2022/09/20 10:12:41;;;;;;;6.37;1.17;;;19.70;1.00;;;;;;5093426;28;21142;-71
2022/09/20 10:15:14;;;;;;;2.37;1.47;;;20.00;1.00;;;;;;5083010;28;20434;-72
2022/09/20 10:18:09;;;;;;;2.00;1.07;;;20.20;1.00;;;;;;5113805;28;20748;-72
2022/09/20 10:21:13;;;;;;;4.10;0.93;;;20.30;1.00;;;;;;5101694;28;20998;-72
2022/09/20 10:24:29;;;;;;;3.97;1.40;;;20.70;1.00;;;;;;5111813;28;20985;-75
2022/09/20 10:27:13;;;;;;;3.17;1.27;;;20.90;1.00;;;;;;5010617;28;20934;-74
2022/09/20 10:29:53;;;;;;;3.00;1.30;;;21.20;1.00;;;;;;5030959;28;20410;-74
2022/09/20 10:32:22;;;;;;;4.27;1.07;;;21.20;1.00;;;;;;5077097;28;20504;-73
2022/09/20 10:35:12;;;;;;;2.60;1.03;;;21.20;1.00;;;;;;5112563;28;20427;-71
2022/09/20 10:38:04;;;;;;;1.90;1.00;;;21.40;1.00;;;;;;5096605;28;20419;-72
2022/09/20 10:43:51;;;;;;;3.23;0.90;;;21.80;1.00;;;;;;5110891;28;20461;-75
2022/09/20 10:46:32;;;;;;;1.83;0.90;;;21.80;1.00;;;;;;5103617;28;20473;-73
2022/09/20 10:49:34;;;;;;;2.93;1.60;;;21.60;1.00;;;;;;5113451;28;20479;-71
2022/09/20 10:52:24;;;;;;;6.50;1.40;;;21.00;1.00;;;;;;5112343;28;20426;-71
2022/09/20 10:55:14;;;;;;;2.50;1.00;;;20.50;1.00;;;;;;5113968;28;20472;-72
2022/09/20 10:58:12;;;;;;;4.63;1.10;;;20.10;1.00;;;;;;5101353;28;20419;-72
2022/09/20 11:00:53;;;;;;;2.17;1.43;;;19.70;1.00;;;;;;5096411;28;20408;-74
2022/09/20 11:03:44;;;;;;;2.90;1.50;;;19.30;1.00;;;;;;5097079;28;20503;-75
2022/09/20 11:06:37;;;;;;;7.10;1.37;;;19.10;1.00;;;;;;5098973;28;20502;-72
2022/09/20 11:10:00;;;;;;;3.40;1.30;;;18.80;1.00;;;;;;5117546;28;20451;-74
2022/09/20 11:12:50;;;;;;;8.20;2.40;;;18.60;1.00;;;;;;5081465;28;20455;-72
2022/09/20 11:15:54;;;;;;;2.47;1.10;;;18.40;1.00;;;;;;5095959;28;20454;-73
2022/09/20 11:18:24;;;;;;;2.23;1.00;;;18.20;1.00;;;;;;5034453;28;20835;-70
2022/09/20 11:21:06;;;;;;;2.50;1.03;;;18.20;1.00;;;;;;5036885;28;20432;-72
2022/09/20 11:24:06;;;;;;;4.13;1.27;;;18.30;1.00;;;;;;5092216;28;20413;-72
2022/09/20 11:27:01;;;;;;;3.37;1.07;;;18.00;1.00;;;;;;5097266;28;20445;-75
2022/09/20 11:29:51;;;;;;;4.73;1.23;;;18.20;1.00;;;;;;5099095;28;20411;-72
2022/09/20 11:32:41;;;;;;;6.10;1.30;;;18.20;1.00;;;;;;5081812;28;20455;-73
2022/09/20 11:35:18;;;;;;;3.10;1.00;;;18.20;1.00;;;;;;5095699;28;20430;-73
2022/09/20 11:37:56;;;;;;;3.43;1.17;;;18.20;1.00;;;;;;5116111;28;20418;-73
2022/09/20 11:40:33;;;;;;;1.73;0.97;;;18.20;1.00;;;;;;5097940;28;20417;-73
2022/09/20 11:43:05;;;;;;;2.70;1.10;;;18.00;1.00;;;;;;5116208;28;20417;-73
2022/09/20 11:45:32;;;;;;;6.23;1.73;;;18.00;1.00;;;;;;5115364;28;20494;-75
2022/09/20 11:48:18;;;;;;;3.90;3.43;;;18.10;1.00;;;;;;5096194;28;20403;-74
2022/09/20 11:51:25;;;;;;;3.30;1.17;;;18.00;1.00;;;;;;5068506;28;20457;-74
2022/09/20 11:57:06;;;;;;;3.47;1.10;;;18.20;1.00;;;;;;5103740;27;20437;-72
2022/09/20 11:59:41;;;;;;;4.10;1.00;;;18.40;1.00;;;;;;5095978;28;20376;-75
2022/09/20 12:02:37;;;;;;;1.93;1.73;;;18.40;1.00;;;;;;5107481;28;20414;-76
2022/09/20 12:05:05;;;;;;;5.67;0.83;;;18.50;1.00;;;;;;5091514;28;20783;-72
2022/09/20 12:07:43;;;;;;;2.40;0.97;;;18.70;1.00;;;;;;5094712;28;20466;-75
2022/09/20 12:10:21;;;;;;;5.43;1.33;;;19.00;1.00;;;;;;5094873;28;20414;-73
2022/09/20 12:12:49;;;;;;;2.10;0.80;;;19.00;1.00;;;;;;5115990;28;20521;-72
2022/09/20 12:15:34;;;;;;;6.67;1.20;;;19.10;1.00;;;;;;5096244;28;20502;-76
2022/09/20 12:18:32;;;;;;;2.87;1.93;;;19.20;1.00;;;;;;5095659;28;20395;-72
2022/09/20 12:21:08;;;;;;;13.47;1.20;;;19.20;1.00;;;;;;5081951;28;20419;-76
2022/09/20 12:23:42;;;;;;;2.77;0.70;;;19.10;1.00;;;;;;5097531;28;20919;-76
2022/09/20 12:26:12;;;;;;;4.33;1.20;;;19.00;1.00;;;;;;5115532;28;20521;-73
2022/09/20 12:28:43;;;;;;;3.63;1.30;;;18.60;1.00;;;;;;5089640;28;20424;-73
2022/09/20 12:31:18;;;;;;;4.50;0.93;;;18.80;1.00;;;;;;5100954;28;20414;-71
2022/09/20 12:34:03;;;;;;;1.50;0.83;;;19.20;1.00;;;;;;5099335;28;20981;-75
2022/09/20 12:36:34;;;;;;;2.20;0.87;;;19.70;1.00;;;;;;5078414;28;20450;-74
2022/09/20 12:39:02;;;;;;;3.27;1.27;;;19.90;1.00;;;;;;5077059;28;20745;-72
2022/09/20 12:41:57;;;;;;;2.13;0.70;;;20.30;1.00;;;;;;5103602;28;20997;-72
2022/09/20 12:44:44;;;;;;;2.07;1.20;;;20.80;1.00;;;;;;5114475;28;20419;-75
2022/09/20 12:47:09;;;;;;;3.57;1.07;;;20.90;1.00;;;;;;5101299;28;20416;-72
2022/09/20 12:52:49;;;;;;;3.77;1.00;;;21.10;1.00;;;;;;5110194;28;20199;-74
2022/09/20 12:56:03;;;;;;;1.20;1.00;;;21.20;1.00;;;;;;5114454;28;20422;-74
2022/09/20 12:58:51;;;;;;;4.03;0.70;;;21.30;1.00;;;;;;5077074;28;20423;-73
2022/09/20 13:01:23;;;;;;;1.37;0.70;;;21.90;1.00;;;;;;5099529;28;20865;-75
2022/09/20 13:03:54;;;;;;;4.90;1.10;;;22.40;1.00;;;;;;5096065;28;20407;-72
2022/09/20 13:06:23;;;;;;;4.50;1.03;;;22.50;1.00;;;;;;5115177;28;20415;-73
2022/09/20 13:09:03;;;;;;;6.13;0.90;;;21.90;1.00;;;;;;5115086;28;20398;-73
2022/09/20 13:11:51;;;;;;;2.20;1.03;;;20.90;1.00;;;;;;5114460;28;20417;-76
2022/09/20 13:14:23;;;;;;;4.13;0.80;;;20.70;1.00;;;;;;5114244;28;20542;-75
2022/09/20 13:16:57;;;;;;;2.23;0.80;;;21.00;1.00;;;;;;5096452;28;20410;-75
2022/09/20 13:19:29;;;;;;;2.40;0.70;;;21.20;1.00;;;;;;5114741;28;20432;-74
2022/09/20 13:22:04;;;;;;;1.63;0.70;;;20.60;1.00;;;;;;5114729;28;20911;-74
2022/09/20 13:24:57;;;;;;;1.70;0.80;;;20.00;1.00;;;;;;5095711;28;20414;-76
2022/09/20 13:27:26;;;;;;;1.47;0.87;;;19.90;1.00;;;;;;5087798;28;20425;-76
2022/09/20 13:29:52;;;;;;;3.60;1.00;;;20.20;1.00;;;;;;5114760;28;20902;-76
2022/09/20 13:32:29;;;;;;;3.03;1.17;;;20.60;1.00;;;;;;5113977;28;20403;-73
2022/09/20 13:35:47;;;;;;;3.17;0.80;;;20.90;1.00;;;;;;5113751;28;20452;-76
2022/09/20 13:38:23;;;;;;;3.30;1.30;;;21.10;1.00;;;;;;5031835;28;20450;-76
2022/09/20 13:40:51;;;;;;;2.23;0.80;;;21.20;1.00;;;;;;5112576;28;20440;-76
2022/09/20 13:43:36;;;;;;;2.17;0.70;;;20.80;1.00;;;;;;5114299;28;20433;-72
2022/09/20 13:46:21;;;;;;;3.27;1.07;;;20.40;1.00;;;;;;5114241;28;20418;-75
2022/09/20 13:48:52;;;;;;;3.93;1.37;;;19.70;1.00;;;;;;5114329;28;20402;-72
2022/09/20 13:51:26;;;;;;;2.63;0.80;;;19.50;1.00;;;;;;5113489;28;20402;-75
2022/09/20 13:53:52;;;;;;;1.63;0.80;;;19.60;1.00;;;;;;5095164;28;20454;-72
2022/09/20 13:56:28;;;;;;;1.77;1.07;;;19.80;1.00;;;;;;5114132;28;20415;-76
2022/09/20 13:58:58;;;;;;;1.80;0.87;;;19.20;1.00;;;;;;5114149;28;20395;-76
2022/09/20 14:01:32;;;;;;;1.20;0.83;;;18.60;1.00;;;;;;5113963;28;20470;-72
2022/09/20 14:04:14;;;;;;;2.30;2.03;;;18.60;99.90;;;;;;5113333;28;20424;-71
2022/09/20 14:07:05;;;;;;;1.80;1.00;;;18.50;1.00;;;;;;5095795;28;20433;-75
2022/09/20 14:09:38;;;;;;;2.07;0.80;;;18.30;99.90;;;;;;5113387;28;20411;-75
2022/09/20 14:12:05;;;;;;;1.47;0.80;;;17.80;99.90;;;;;;5095511;28;20922;-75
2022/09/20 14:14:33;;;;;;;1.53;1.00;;;18.10;1.00;;;;;;5113198;28;20399;-75
2022/09/20 14:17:03;;;;;;;1.30;1.00;;;18.50;1.00;;;;;;5113874;28;20411;-76
2022/09/20 14:19:37;;;;;;;1.23;0.77;;;19.00;1.00;;;;;;5113706;28;20914;-76
2022/09/20 14:22:05;;;;;;;1.27;1.07;;;19.70;1.00;;;;;;5113712;28;20398;-71
2022/09/20 14:24:35;;;;;;;3.30;1.20;;;20.20;1.00;;;;;;5112556;28;20407;-75